EST,Max TemperatureF,Mean TemperatureF,Min TemperatureF,Max Dew PointF,MeanDew PointF,Min DewpointF,Max Humidity, Mean Humidity, Min Humidity, Max Sea Level PressureIn, Mean Sea Level PressureIn, Min Sea Level PressureIn, Max VisibilityMiles, Mean VisibilityMiles, Min VisibilityMiles, Max Wind SpeedMPH, Mean Wind SpeedMPH, Max Gust SpeedMPH,PrecipitationIn, CloudCover, Events, WindDirDegrees
2012-12-1,45,36,26,36,32,24,92,78,66,30.41,30.36,30.31,10,7,3,14,3,18,0.00,7,,191
2012-12-2,51,44,37,46,39,33,93,79,66,30.30,30.14,30.01,10,7,4,12,5,,0.04,5,Rain,211
2012-12-3,59,49,39,46,43,37,100,85,62,30.25,30.17,30.09,10,6,0,8,2,,0.00,6,Fog,77
2012-12-4,69,54,39,52,45,39,100,81,45,30.15,30.06,29.90,10,6,0,20,3,26,0.21,5,Fog-Rain,236
2012-12-5,46,37,28,45,29,16,93,70,55,30.36,30.15,29.98,10,10,6,16,7,29,0.07,7,Rain-Snow,282
2012-12-6,37,29,21,22,18,15,82,62,47,30.40,30.29,30.15,10,10,10,6,3,,0.00,1,,78
2012-12-7,39,33,27,36,31,20,93,85,61,30.13,30.03,29.97,10,6,4,5,1,,0.18,7,Rain,190
2012-12-8,53,45,37,47,39,35,93,85,74,30.11,29.91,29.78,10,8,4,13,2,22,0.12,8,Rain,354
2012-12-9,44,36,32,39,30,26,89,74,63,30.28,30.14,29.90,10,10,5,9,5,,0.02,7,Rain,50
2012-12-10,55,46,37,49,42,35,93,84,75,29.86,29.64,29.50,10,9,6,12,5,,0.43,8,Rain,281
2012-12-11,37,32,25,35,28,22,93,76,55,30.20,29.96,29.73,10,10,10,14,4,20,0.00,7,,305
2012-12-12,42,30,18,27,20,15,92,73,40,30.46,30.36,30.21,10,10,10,8,1,,0.00,1,,258
2012-12-13,43,30,18,25,19,15,89,75,41,30.50,30.41,30.29,10,10,10,10,1,,0.00,0,,222
2012-12-14,46,32,18,28,22,15,92,76,45,30.29,30.24,30.19,10,10,6,10,2,,0.00,0,,271
2012-12-15,41,30,19,30,23,16,93,82,65,30.34,30.24,30.07,10,6,0,7,2,,0.00,3,Fog,87
2012-12-16,46,44,41,41,37,29,89,75,62,30.06,29.90,29.80,10,10,6,8,3,20,0.10,8,Rain,150
2012-12-17,48,45,42,43,41,39,93,88,81,29.81,29.72,29.57,10,8,3,10,4,,0.83,8,Rain,97
2012-12-18,46,42,37,42,37,32,100,87,76,29.72,29.54,29.45,10,7,2,17,4,24,0.21,8,Rain,254
2012-12-19,41,36,30,33,28,26,93,76,55,30.19,29.96,29.71,10,10,10,12,5,20,0.00,6,,269
2012-12-20,39,31,23,34,27,21,92,78,49,30.21,29.87,29.49,10,8,2,13,6,29,0.10,5,Rain-Snow,116
2012-12-21,41,37,33,37,31,26,96,85,72,29.43,29.26,29.18,10,6,2,20,8,37,0.64,8,Rain-Snow,244
2012-12-22,33,30,28,27,22,19,80,69,59,29.92,29.59,29.29,10,7,2,25,16,38,0.00,8,Rain-Snow,285
2012-12-23,37,34,30,25,19,11,80,58,34,29.97,29.89,29.80,10,10,9,17,8,22,0.00,6,,256
2012-12-24,34,31,28,27,21,17,88,69,54,30.07,29.96,29.86,10,7,1,10,5,17,0.04,6,Snow,57
2012-12-25,33,30,26,28,24,19,93,79,64,30.32,30.11,29.86,10,9,4,9,3,20,0.00,8,Snow,3
2012-12-26,28,24,21,25,21,15,93,82,63,30.34,29.92,29.64,10,4,0,15,8,,0.32,7,Fog-Snow,53
2012-12-27,28,26,24,25,21,17,86,79,71,30.01,29.74,29.60,10,6,0,17,8,28,0.05,8,Fog-Snow,340
2012-12-28,30,28,25,23,20,19,78,75,69,30.14,30.09,30.01,10,10,10,9,4,,0.00,8,,267
2012-12-29,28,26,24,25,23,19,93,86,72,30.02,29.73,29.60,10,3,0,10,4,,0.28,8,Fog-Snow,50
2012-12-30,28,26,23,18,15,11,74,64,53,30.25,30.06,29.80,10,8,3,26,11,37,0.00,7,Rain-Snow,286
2012-12-31,36,24,12,24,18,8,88,67,48,30.20,30.04,29.88,10,10,5,13,4,21,0.00,4,,238